Time;durP1;ratioP1;P1;durP2;ratioP2;P2;SDS_P1;SDS_P2;PMS_P1;PMS_P2;Temp;Humidity;BMP_temperature;BMP_pressure;BME280_temperature;BME280_humidity;BME280_pressure;Samples;Min_cycle;Max_cycle;Signal;HPM_P1;HPM_P2
2023/05/01 00:01:54;;;;;;;2.55;1.32;;;15.70;52.70;;;;;;928070;151;27417;-76
2023/05/01 00:04:21;;;;;;;3.85;1.75;;;15.70;52.70;;;;;;947070;148;27418;-76
2023/05/01 00:06:47;;;;;;;1.85;1.50;;;15.70;52.80;;;;;;935377;151;27250;-76
2023/05/01 00:09:14;;;;;;;3.00;1.83;;;15.60;52.90;;;;;;926700;151;27489;-76
2023/05/01 00:11:40;;;;;;;2.10;1.45;;;15.60;52.90;;;;;;947011;148;27348;-76
2023/05/01 00:14:07;;;;;;;2.33;1.53;;;15.60;52.80;;;;;;933942;151;27359;-76
2023/05/01 00:16:34;;;;;;;2.22;1.55;;;15.50;52.70;;;;;;927954;152;27439;-76
2023/05/01 00:19:00;;;;;;;1.60;1.50;;;15.50;52.80;;;;;;927859;152;27349;-76
2023/05/01 00:21:27;;;;;;;2.77;1.70;;;15.40;52.80;;;;;;946440;148;27438;-76
2023/05/01 00:23:54;;;;;;;1.90;1.63;;;15.30;52.90;;;;;;946449;150;27398;-76
2023/05/01 00:26:20;;;;;;;1.33;1.17;;;15.30;52.90;;;;;;946039;151;27464;-76
2023/05/01 00:28:46;;;;;;;1.65;1.30;;;15.20;52.90;;;;;;945758;151;27418;-76
2023/05/01 00:31:13;;;;;;;1.97;1.70;;;15.10;53.00;;;;;;924804;151;27353;-76
2023/05/01 00:33:39;;;;;;;2.30;1.57;;;15.10;53.10;;;;;;938511;150;27445;-76
2023/05/01 00:36:06;;;;;;;2.33;1.43;;;14.90;53.00;;;;;;938924;150;27364;-76
2023/05/01 00:38:33;;;;;;;1.63;1.30;;;14.90;53.20;;;;;;938413;150;27412;-76
2023/05/01 00:40:59;;;;;;;2.53;1.50;;;14.80;53.30;;;;;;937438;150;27446;-76
2023/05/01 00:43:26;;;;;;;2.90;1.93;;;14.70;53.40;;;;;;947086;149;27347;-76
2023/05/01 00:45:52;;;;;;;3.37;1.80;;;14.60;53.50;;;;;;947728;148;27372;-76
2023/05/01 00:48:19;;;;;;;2.73;1.60;;;14.50;53.60;;;;;;947484;149;27451;-76
2023/05/01 00:50:46;;;;;;;1.87;1.67;;;14.40;53.60;;;;;;947082;149;27411;-76
2023/05/01 00:53:12;;;;;;;4.13;1.80;;;14.40;53.80;;;;;;946599;149;27324;-76
2023/05/01 00:55:39;;;;;;;1.90;1.80;;;14.30;53.80;;;;;;936046;150;27383;-76
2023/05/01 00:58:06;;;;;;;1.87;1.67;;;14.20;53.90;;;;;;930976;151;27393;-76
2023/05/01 01:00:32;;;;;;;2.70;1.80;;;14.20;54.00;;;;;;946887;149;27329;-76
2023/05/01 01:02:59;;;;;;;1.97;1.77;;;14.10;54.20;;;;;;933264;151;27393;-76
2023/05/01 01:05:26;;;;;;;2.27;1.80;;;14.10;54.30;;;;;;933361;151;27479;-76
2023/05/01 01:07:54;;;;;;;1.83;1.63;;;14.00;54.30;;;;;;935727;150;27384;-76
2023/05/01 01:10:27;;;;;;;2.70;1.83;;;14.00;54.40;;;;;;950422;148;27308;-76
2023/05/01 01:12:56;;;;;;;4.03;2.10;;;14.00;54.50;;;;;;933863;150;27440;-76
2023/05/01 01:15:26;;;;;;;2.13;1.87;;;13.90;54.40;;;;;;935905;150;27386;-76
2023/05/01 01:18:04;;;;;;;2.57;1.97;;;13.90;54.50;;;;;;942686;149;27463;-76
2023/05/01 01:20:44;;;;;;;2.67;2.00;;;13.90;54.60;;;;;;942251;149;27421;-76
2023/05/01 01:23:13;;;;;;;2.20;1.90;;;13.90;54.60;;;;;;951272;148;27331;-76
2023/05/01 01:25:42;;;;;;;2.20;2.00;;;13.90;54.50;;;;;;933292;151;27340;-76
2023/05/01 01:28:30;;;;;;;2.70;1.87;;;13.90;54.60;;;;;;930167;151;27391;-76
2023/05/01 01:31:18;;;;;;;2.33;2.13;;;13.90;54.60;;;;;;932388;151;27364;-76
2023/05/01 01:34:03;;;;;;;3.47;2.30;;;13.90;54.60;;;;;;934294;150;27337;-76
2023/05/01 01:36:38;;;;;;;2.93;2.03;;;13.90;54.60;;;;;;951319;148;27296;-76
2023/05/01 01:39:13;;;;;;;2.10;1.90;;;13.90;54.60;;;;;;951506;148;27362;-76
2023/05/01 01:41:40;;;;;;;2.43;2.17;;;13.90;54.60;;;;;;934426;150;27320;-76
2023/05/01 01:44:06;;;;;;;1.90;1.80;;;13.90;54.70;;;;;;951551;148;27307;-76
2023/05/01 01:46:33;;;;;;;3.23;2.23;;;13.90;54.80;;;;;;952159;148;27363;-76
2023/05/01 01:48:59;;;;;;;3.77;2.37;;;13.90;54.80;;;;;;951897;148;27363;-76
2023/05/01 01:51:26;;;;;;;3.00;1.97;;;13.90;54.80;;;;;;951745;148;27334;-76
2023/05/01 01:53:52;;;;;;;3.23;2.17;;;13.90;54.90;;;;;;951435;148;27300;-76
2023/05/01 01:56:19;;;;;;;3.60;2.23;;;13.90;54.80;;;;;;951387;148;28023;-76
2023/05/01 01:58:46;;;;;;;3.03;2.20;;;13.90;55.00;;;;;;951518;148;27715;-76
2023/05/01 02:01:12;;;;;;;3.20;2.43;;;13.90;54.80;;;;;;951433;148;27355;-76
2023/05/01 02:03:39;;;;;;;3.30;2.30;;;13.90;54.90;;;;;;946511;148;27371;-76
2023/05/01 02:06:05;;;;;;;3.93;2.20;;;13.90;54.90;;;;;;947293;148;27320;-76
2023/05/01 02:08:32;;;;;;;2.33;2.10;;;13.90;54.90;;;;;;947428;148;27311;-74
2023/05/01 02:10:58;;;;;;;2.80;2.40;;;13.90;54.90;;;;;;927926;152;27382;-74
2023/05/01 02:13:28;;;;;;;2.80;2.40;;;13.90;54.80;;;;;;929943;151;27485;-74
2023/05/01 02:15:54;;;;;;;3.27;2.20;;;13.90;54.90;;;;;;931135;151;27336;-74
2023/05/01 02:18:21;;;;;;;3.57;2.10;;;13.90;54.90;;;;;;928536;151;27355;-74
2023/05/01 02:20:48;;;;;;;3.53;2.17;;;13.90;54.90;;;;;;930490;151;27472;-74
2023/05/01 02:23:14;;;;;;;2.60;2.23;;;13.90;54.90;;;;;;927499;152;27341;-74
2023/05/01 02:25:41;;;;;;;2.20;2.00;;;13.90;55.00;;;;;;946498;148;27268;-74
2023/05/01 02:28:07;;;;;;;2.93;2.40;;;13.90;54.90;;;;;;935728;148;27425;-74
2023/05/01 02:30:34;;;;;;;4.20;2.40;;;13.80;55.00;;;;;;930897;151;27357;-74
2023/05/01 02:33:01;;;;;;;2.60;2.33;;;13.80;55.00;;;;;;934448;151;27474;-74
2023/05/01 02:35:27;;;;;;;3.80;2.40;;;13.80;55.60;;;;;;926851;151;27300;-74
2023/05/01 02:37:54;;;;;;;3.63;2.40;;;13.70;55.00;;;;;;947287;148;27334;-74
2023/05/01 02:40:20;;;;;;;2.93;2.37;;;13.70;55.10;;;;;;935084;150;27414;-74
2023/05/01 02:42:47;;;;;;;2.70;2.40;;;13.60;55.20;;;;;;947070;148;27376;-74
2023/05/01 02:45:19;;;;;;;3.83;2.30;;;13.60;55.20;;;;;;946988;148;27291;-74
2023/05/01 02:47:46;;;;;;;3.10;2.53;;;13.50;55.20;;;;;;926111;152;27339;-74
2023/05/01 02:50:12;;;;;;;4.67;2.30;;;13.50;55.30;;;;;;946646;149;27348;-74
2023/05/01 02:52:39;;;;;;;2.83;2.17;;;13.40;55.30;;;;;;927931;152;27797;-76
2023/05/01 02:55:05;;;;;;;2.67;2.27;;;13.30;55.40;;;;;;946413;148;27328;-76
2023/05/01 02:57:36;;;;;;;2.17;2.00;;;13.30;55.50;;;;;;947323;148;27742;-75
2023/05/01 03:00:03;;;;;;;4.60;2.40;;;13.20;55.60;;;;;;931007;151;27349;-74
2023/05/01 03:02:29;;;;;;;3.33;2.63;;;13.10;55.70;;;;;;946562;148;27324;-74
2023/05/01 03:04:56;;;;;;;4.07;2.53;;;13.10;55.80;;;;;;946971;149;27330;-74
2023/05/01 03:07:23;;;;;;;2.63;2.43;;;13.00;55.90;;;;;;947700;148;27455;-74
2023/05/01 03:09:49;;;;;;;2.53;2.33;;;12.90;56.00;;;;;;947410;148;27441;-74
2023/05/01 03:12:16;;;;;;;4.40;2.80;;;12.90;56.10;;;;;;947142;148;27321;-74
2023/05/01 03:14:42;;;;;;;4.37;2.67;;;12.90;56.20;;;;;;947296;149;27397;-74
2023/05/01 03:17:09;;;;;;;3.73;2.57;;;12.90;56.30;;;;;;947148;149;27461;-74
2023/05/01 03:19:36;;;;;;;3.33;2.50;;;12.90;56.40;;;;;;947158;148;27461;-74
2023/05/01 03:22:02;;;;;;;2.67;2.27;;;12.80;56.30;;;;;;946463;149;27385;-74
2023/05/01 03:24:29;;;;;;;2.80;2.60;;;12.80;56.40;;;;;;947174;149;27293;-74
2023/05/01 03:26:55;;;;;;;4.03;3.43;;;12.80;56.60;;;;;;947097;148;27422;-74
2023/05/01 03:29:22;;;;;;;4.57;3.40;;;12.80;56.70;;;;;;947773;148;27477;-74
2023/05/01 03:31:49;;;;;;;5.90;2.90;;;12.70;56.60;;;;;;947073;148;27423;-74
2023/05/01 03:34:15;;;;;;;3.20;2.87;;;12.70;56.70;;;;;;947746;148;27360;-74
2023/05/01 03:36:41;;;;;;;5.07;2.93;;;12.60;56.70;;;;;;946988;149;27371;-74
2023/05/01 03:39:08;;;;;;;3.43;3.00;;;12.60;56.80;;;;;;947291;148;27378;-74
2023/05/01 03:41:35;;;;;;;3.23;2.83;;;12.60;56.90;;;;;;947429;148;27421;-74
2023/05/01 03:44:01;;;;;;;3.83;2.70;;;12.50;57.00;;;;;;947073;149;27693;-74
2023/05/01 03:46:28;;;;;;;3.43;2.57;;;12.50;57.00;;;;;;931619;151;27346;-74
2023/05/01 03:48:54;;;;;;;3.67;2.40;;;12.50;57.10;;;;;;947814;148;27447;-75
2023/05/01 03:51:21;;;;;;;3.67;2.93;;;12.40;57.20;;;;;;947737;148;27359;-74
2023/05/01 03:53:48;;;;;;;4.27;2.90;;;12.40;57.30;;;;;;946689;150;27437;-74
2023/05/01 03:56:14;;;;;;;4.10;2.77;;;12.30;57.40;;;;;;946717;149;27329;-74
2023/05/01 03:58:41;;;;;;;3.10;2.37;;;12.30;57.40;;;;;;946350;151;27334;-74
2023/05/01 04:01:07;;;;;;;4.83;2.97;;;12.30;57.40;;;;;;946729;150;27455;-74
2023/05/01 04:03:34;;;;;;;4.33;2.80;;;12.20;57.50;;;;;;944843;151;27391;-74
2023/05/01 04:06:00;;;;;;;3.27;2.73;;;12.20;57.70;;;;;;943332;151;27379;-74
2023/05/01 04:08:33;;;;;;;3.40;2.73;;;12.10;58.00;;;;;;936887;150;27305;-76
2023/05/01 04:10:57;;;;;;;4.10;2.73;;;12.10;57.90;;;;;;930236;152;27509;-75
2023/05/01 04:13:23;;;;;;;3.87;3.00;;;12.10;58.00;;;;;;930582;153;27366;-75
2023/05/01 04:15:50;;;;;;;3.07;2.70;;;12.00;58.30;;;;;;931506;152;27650;-75
2023/05/01 04:18:16;;;;;;;4.80;3.00;;;12.00;58.40;;;;;;918136;152;27365;-75
2023/05/01 04:20:43;;;;;;;3.47;3.10;;;12.00;58.60;;;;;;940279;152;27373;-75
2023/05/01 04:23:11;;;;;;;3.57;2.83;;;11.90;58.80;;;;;;922966;152;27535;-75
2023/05/01 04:25:36;;;;;;;3.23;2.60;;;11.90;59.00;;;;;;916905;154;27369;-75
2023/05/01 04:28:03;;;;;;;4.80;2.90;;;11.90;59.10;;;;;;924821;151;27364;-75
2023/05/01 04:30:30;;;;;;;4.03;2.83;;;11.90;59.20;;;;;;940734;150;27536;-75
2023/05/01 04:32:57;;;;;;;3.13;2.77;;;11.90;59.40;;;;;;940771;152;27361;-75
2023/05/01 04:35:23;;;;;;;3.57;3.03;;;11.90;59.50;;;;;;918402;152;27590;-75
2023/05/01 04:37:49;;;;;;;3.70;3.17;;;12.00;59.70;;;;;;940730;152;27341;-75
2023/05/01 04:40:16;;;;;;;3.03;2.73;;;12.00;59.90;;;;;;940096;152;27317;-75
2023/05/01 04:42:42;;;;;;;4.57;3.00;;;12.00;60.00;;;;;;940528;152;27766;-75
2023/05/01 04:45:09;;;;;;;5.40;3.10;;;12.10;60.10;;;;;;923684;153;27348;-75
2023/05/01 04:47:36;;;;;;;3.03;2.73;;;12.10;60.30;;;;;;940849;152;27290;-75
2023/05/01 04:50:02;;;;;;;3.37;3.07;;;12.10;60.30;;;;;;939995;150;27349;-75
2023/05/01 04:52:29;;;;;;;3.27;2.97;;;12.20;60.40;;;;;;940269;152;27455;-75
2023/05/01 04:54:56;;;;;;;3.20;2.63;;;12.30;60.70;;;;;;940743;152;27384;-75
2023/05/01 04:57:22;;;;;;;3.10;2.80;;;12.30;60.70;;;;;;940464;150;28317;-75
2023/05/01 04:59:48;;;;;;;3.20;2.90;;;12.40;60.70;;;;;;940710;150;27356;-75
2023/05/01 05:02:15;;;;;;;3.97;2.83;;;12.40;60.80;;;;;;940971;150;27419;-75
2023/05/01 05:04:42;;;;;;;3.97;2.53;;;12.50;60.90;;;;;;940855;152;27431;-75
2023/05/01 05:07:08;;;;;;;3.93;2.67;;;12.60;61.00;;;;;;934936;150;27421;-75
2023/05/01 05:09:35;;;;;;;3.17;2.60;;;12.70;61.40;;;;;;934959;149;27377;-75
2023/05/01 05:12:03;;;;;;;4.37;3.00;;;12.70;61.20;;;;;;917963;152;27809;-75
2023/05/01 05:14:28;;;;;;;5.73;2.90;;;12.80;61.20;;;;;;911640;153;27571;-75
2023/05/01 05:16:55;;;;;;;3.17;2.70;;;12.90;61.30;;;;;;935124;149;27362;-75
2023/05/01 05:19:21;;;;;;;3.07;2.83;;;12.90;61.20;;;;;;922834;152;27330;-75
2023/05/01 05:21:48;;;;;;;2.87;2.57;;;13.00;61.20;;;;;;934586;149;27326;-75
2023/05/01 05:24:14;;;;;;;4.03;2.53;;;13.10;61.20;;;;;;934931;149;27420;-75
2023/05/01 05:26:41;;;;;;;3.23;2.73;;;13.20;61.20;;;;;;934395;149;27381;-75
2023/05/01 05:29:07;;;;;;;3.27;2.37;;;13.30;61.10;;;;;;918430;152;27513;-75
2023/05/01 05:31:34;;;;;;;2.83;2.40;;;13.40;61.30;;;;;;912035;153;27797;-75
2023/05/01 05:34:01;;;;;;;2.60;2.40;;;13.50;61.30;;;;;;934586;149;27334;-75
2023/05/01 05:36:27;;;;;;;4.00;2.30;;;13.60;61.30;;;;;;935072;149;27458;-75
2023/05/01 05:38:54;;;;;;;3.30;2.67;;;13.80;61.30;;;;;;934907;149;27380;-75
2023/05/01 05:41:20;;;;;;;3.67;2.70;;;13.90;61.20;;;;;;934555;149;27438;-75
2023/05/01 05:43:47;;;;;;;3.07;2.77;;;14.00;61.00;;;;;;934984;149;27399;-75
2023/05/01 05:46:14;;;;;;;3.65;2.52;;;14.20;60.90;;;;;;918197;152;27467;-75
2023/05/01 05:48:40;;;;;;;3.50;2.50;;;14.30;60.70;;;;;;917934;152;27503;-75
2023/05/01 05:51:07;;;;;;;3.00;2.75;;;14.50;60.50;;;;;;918284;151;27340;-75
2023/05/01 05:53:33;;;;;;;3.87;2.53;;;14.60;60.30;;;;;;919222;152;27373;-75
2023/05/01 05:56:00;;;;;;;3.72;2.67;;;14.80;60.20;;;;;;923576;152;27330;-75
2023/05/01 05:58:27;;;;;;;3.17;2.70;;;15.00;60.30;;;;;;915233;152;27451;-75
2023/05/01 06:00:54;;;;;;;3.87;2.58;;;15.10;60.00;;;;;;922604;152;27381;-75
2023/05/01 06:03:20;;;;;;;3.42;3.12;;;15.30;59.90;;;;;;912179;153;27391;-75
2023/05/01 06:05:46;;;;;;;3.47;2.83;;;15.50;59.70;;;;;;918715;152;27298;-76
2023/05/01 06:08:13;;;;;;;4.20;2.65;;;15.70;59.50;;;;;;935262;149;27423;-75
2023/05/01 06:10:40;;;;;;;4.12;2.98;;;15.90;59.20;;;;;;932903;149;27399;-75
2023/05/01 06:13:10;;;;;;;3.10;2.80;;;16.10;58.90;;;;;;934222;149;27478;-75
2023/05/01 06:15:39;;;;;;;3.50;2.83;;;16.20;58.70;;;;;;935353;149;27346;-75
2023/05/01 06:18:05;;;;;;;5.05;3.12;;;16.40;58.60;;;;;;934254;150;27743;-75
2023/05/01 06:20:32;;;;;;;3.80;3.05;;;16.50;58.50;;;;;;934605;149;27378;-75
2023/05/01 06:22:58;;;;;;;3.50;2.70;;;16.70;58.40;;;;;;934985;149;27407;-75
2023/05/01 06:25:25;;;;;;;3.30;2.90;;;16.80;59.00;;;;;;935016;149;27348;-75
2023/05/01 06:27:52;;;;;;;2.67;2.47;;;17.00;58.20;;;;;;934519;150;27335;-75
2023/05/01 06:30:18;;;;;;;3.55;3.25;;;17.20;58.10;;;;;;934322;149;27364;-75
2023/05/01 06:32:45;;;;;;;5.37;3.00;;;17.40;58.00;;;;;;912986;153;27366;-76
2023/05/01 06:35:11;;;;;;;2.58;2.35;;;17.60;58.00;;;;;;934045;149;27364;-76
2023/05/01 06:37:38;;;;;;;3.08;2.83;;;17.90;58.10;;;;;;918301;152;27362;-76
2023/05/01 06:40:05;;;;;;;2.92;2.62;;;18.20;58.30;;;;;;918065;152;27484;-76
2023/05/01 06:42:31;;;;;;;4.35;2.22;;;18.60;58.60;;;;;;932569;149;28036;-76
2023/05/01 06:44:58;;;;;;;3.10;2.50;;;19.20;58.50;;;;;;929021;150;27346;-76
2023/05/01 06:47:24;;;;;;;2.40;2.20;;;19.80;58.40;;;;;;911637;153;27416;-76
2023/05/01 06:49:51;;;;;;;4.00;2.90;;;20.50;58.20;;;;;;918171;153;27420;-76
2023/05/01 06:52:17;;;;;;;3.00;2.42;;;21.30;57.80;;;;;;934770;149;27346;-76
2023/05/01 06:54:44;;;;;;;4.45;3.35;;;22.00;56.70;;;;;;912437;153;27358;-76
2023/05/01 06:57:11;;;;;;;2.98;2.67;;;22.80;55.40;;;;;;934675;150;27708;-76
2023/05/01 06:59:37;;;;;;;4.37;2.60;;;23.40;54.20;;;;;;917059;152;27359;-76
2023/05/01 07:02:04;;;;;;;3.98;2.80;;;24.00;53.90;;;;;;911173;153;27457;-76
2023/05/01 07:04:30;;;;;;;3.27;2.95;;;24.50;52.20;;;;;;927419;152;27389;-76
2023/05/01 07:06:57;;;;;;;3.10;2.60;;;24.90;51.10;;;;;;923749;151;27444;-76
2023/05/01 07:09:24;;;;;;;4.42;2.77;;;25.30;50.10;;;;;;931255;150;27396;-76
2023/05/01 07:11:50;;;;;;;3.17;2.90;;;25.50;49.20;;;;;;927065;152;27375;-76
2023/05/01 07:14:17;;;;;;;4.22;2.80;;;25.70;48.50;;;;;;927959;152;27480;-76
2023/05/01 07:16:44;;;;;;;3.95;3.10;;;25.80;48.00;;;;;;928877;151;27923;-76
2023/05/01 07:19:12;;;;;;;3.12;2.80;;;25.90;47.50;;;;;;947084;148;27680;-76
2023/05/01 07:21:36;;;;;;;2.70;2.47;;;25.90;46.50;;;;;;927109;152;27463;-76
2023/05/01 07:24:03;;;;;;;3.52;2.67;;;25.90;46.00;;;;;;946238;150;27433;-76
2023/05/01 07:26:30;;;;;;;2.90;2.70;;;25.80;45.60;;;;;;946241;150;27470;-76
2023/05/01 07:28:56;;;;;;;4.37;2.80;;;25.70;45.40;;;;;;935327;151;27377;-76
2023/05/01 07:31:23;;;;;;;3.33;2.98;;;25.50;45.00;;;;;;923952;151;27362;-76
2023/05/01 07:33:49;;;;;;;3.22;2.92;;;25.30;44.80;;;;;;926264;151;27442;-76
2023/05/01 07:36:19;;;;;;;4.78;3.00;;;25.20;44.80;;;;;;947130;148;27462;-76
2023/05/01 07:38:43;;;;;;;2.92;2.67;;;25.10;44.90;;;;;;946703;149;27357;-76
2023/05/01 07:41:09;;;;;;;3.10;2.80;;;25.00;45.20;;;;;;925542;151;27470;-76
2023/05/01 07:43:36;;;;;;;3.58;2.80;;;24.90;45.20;;;;;;947240;148;27502;-76
2023/05/01 07:46:02;;;;;;;3.58;2.80;;;24.90;45.20;;;;;;947139;148;27305;-76
2023/05/01 07:48:30;;;;;;;4.87;2.98;;;24.90;45.00;;;;;;947428;149;27384;-76
2023/05/01 07:50:56;;;;;;;4.10;2.83;;;24.90;44.70;;;;;;947342;148;27437;-76
2023/05/01 07:53:22;;;;;;;3.22;2.90;;;24.90;44.80;;;;;;946385;148;27772;-76
2023/05/01 07:55:49;;;;;;;3.10;2.77;;;24.90;44.70;;;;;;946830;149;27328;-76
2023/05/01 07:58:19;;;;;;;3.20;3.00;;;24.90;44.70;;;;;;946460;149;27372;-76
2023/05/01 08:00:44;;;;;;;3.00;2.70;;;24.90;44.70;;;;;;945567;148;27433;-76
2023/05/01 08:03:09;;;;;;;3.15;2.55;;;24.90;44.70;;;;;;947101;148;27325;-76
2023/05/01 08:05:35;;;;;;;3.83;3.12;;;24.90;44.70;;;;;;947299;148;27384;-76
2023/05/01 08:08:02;;;;;;;3.35;2.95;;;24.90;44.40;;;;;;947167;149;27404;-76
2023/05/01 08:10:28;;;;;;;4.90;3.35;;;24.90;44.30;;;;;;947347;148;27392;-76
2023/05/01 08:12:55;;;;;;;4.25;2.77;;;24.90;44.30;;;;;;946472;148;27364;-76
2023/05/01 08:15:21;;;;;;;4.28;2.67;;;24.90;44.20;;;;;;946987;148;27420;-76
2023/05/01 08:17:49;;;;;;;3.22;2.92;;;25.00;44.10;;;;;;946586;148;27365;-77
2023/05/01 08:20:15;;;;;;;3.15;2.92;;;25.00;44.10;;;;;;930414;151;27385;-77
2023/05/01 08:22:41;;;;;;;3.85;3.25;;;25.10;44.10;;;;;;947534;148;27313;-76
2023/05/01 08:25:08;;;;;;;3.00;2.67;;;25.20;44.20;;;;;;946658;149;27402;-76
2023/05/01 08:27:34;;;;;;;3.35;2.70;;;25.30;44.10;;;;;;946882;149;27266;-76
2023/05/01 08:30:01;;;;;;;3.10;2.77;;;25.40;44.00;;;;;;947680;148;27446;-76
2023/05/01 08:32:28;;;;;;;3.70;2.80;;;25.50;43.80;;;;;;947079;148;27398;-76
2023/05/01 08:34:54;;;;;;;3.37;2.70;;;25.60;43.60;;;;;;947013;149;27421;-76
2023/05/01 08:37:21;;;;;;;3.80;2.65;;;25.70;43.50;;;;;;947231;149;27301;-76
2023/05/01 08:39:47;;;;;;;4.22;2.80;;;25.70;43.20;;;;;;947195;149;27337;-76
2023/05/01 08:42:14;;;;;;;3.27;2.62;;;25.70;43.10;;;;;;946990;148;27371;-75
2023/05/01 08:44:41;;;;;;;7.80;3.33;;;25.70;42.90;;;;;;927888;152;27425;-75
2023/05/01 08:47:16;;;;;;;3.08;2.80;;;25.70;42.80;;;;;;930536;151;27367;-75
2023/05/01 08:49:43;;;;;;;3.70;2.75;;;25.60;42.70;;;;;;930962;151;27313;-75
2023/05/01 08:52:12;;;;;;;3.05;2.72;;;25.60;42.70;;;;;;931264;151;27398;-75
2023/05/01 08:54:39;;;;;;;3.25;2.90;;;25.50;42.60;;;;;;927965;151;27506;-75
2023/05/01 08:57:05;;;;;;;2.65;2.45;;;25.50;42.60;;;;;;929106;151;27763;-75
2023/05/01 08:59:34;;;;;;;4.00;2.95;;;25.50;42.50;;;;;;931186;151;27333;-75
2023/05/01 09:02:03;;;;;;;4.35;2.83;;;25.40;42.50;;;;;;927244;151;27358;-75
2023/05/01 09:04:34;;;;;;;3.20;2.90;;;25.40;42.40;;;;;;947059;149;27280;-75
2023/05/01 09:07:00;;;;;;;2.87;2.60;;;25.40;42.40;;;;;;927119;152;27472;-74
2023/05/01 09:09:29;;;;;;;3.05;2.75;;;25.40;42.50;;;;;;942683;151;27416;-75
2023/05/01 09:11:57;;;;;;;3.42;2.70;;;25.40;42.50;;;;;;942956;149;27868;-75
2023/05/01 09:14:22;;;;;;;3.17;2.72;;;25.40;42.50;;;;;;931640;149;27481;-75
2023/05/01 09:16:49;;;;;;;2.77;2.50;;;25.40;42.30;;;;;;927161;152;27404;-75
2023/05/01 09:19:15;;;;;;;3.52;2.65;;;25.40;42.20;;;;;;913320;152;27397;-75
2023/05/01 09:21:42;;;;;;;3.50;2.90;;;25.30;42.10;;;;;;919273;152;27325;-75
2023/05/01 09:24:08;;;;;;;3.67;3.10;;;25.30;42.10;;;;;;912266;152;27340;-75
2023/05/01 09:26:39;;;;;;;2.30;2.20;;;25.20;42.00;;;;;;920725;152;27331;-75
2023/05/01 09:29:02;;;;;;;3.47;2.80;;;25.20;42.00;;;;;;917287;152;27380;-75
2023/05/01 09:31:28;;;;;;;3.35;2.98;;;25.10;41.90;;;;;;919199;152;27387;-75
2023/05/01 09:33:57;;;;;;;3.58;3.02;;;25.00;41.90;;;;;;918782;152;27359;-75
2023/05/01 09:36:28;;;;;;;3.27;2.62;;;24.90;42.00;;;;;;933199;149;27275;-75
2023/05/01 09:38:54;;;;;;;2.90;2.70;;;24.80;42.20;;;;;;926594;152;27523;-75
2023/05/01 09:41:21;;;;;;;3.40;2.70;;;24.80;42.40;;;;;;926737;152;27324;-75
2023/05/01 09:43:52;;;;;;;4.40;3.98;;;24.70;42.40;;;;;;926217;152;27441;-75
2023/05/01 09:46:19;;;;;;;3.55;3.05;;;24.70;42.40;;;;;;926627;152;27361;-75
2023/05/01 09:48:58;;;;;;;3.15;2.40;;;24.60;42.40;;;;;;926950;152;27395;-75
2023/05/01 09:51:27;;;;;;;2.65;2.45;;;24.60;42.50;;;;;;925664;152;27290;-75
2023/05/01 09:53:54;;;;;;;3.22;2.92;;;24.50;42.60;;;;;;913175;152;27414;-75
2023/05/01 09:56:20;;;;;;;2.95;2.70;;;24.50;42.50;;;;;;913344;153;27324;-75
2023/05/01 09:58:47;;;;;;;4.33;3.12;;;24.50;42.50;;;;;;916957;153;27439;-75
2023/05/01 10:01:14;;;;;;;2.77;2.58;;;24.50;42.30;;;;;;909611;152;27450;-75
2023/05/01 10:03:40;;;;;;;2.90;2.67;;;24.40;42.20;;;;;;917978;152;27285;-75
2023/05/01 10:06:07;;;;;;;2.83;2.40;;;24.40;42.30;;;;;;910810;152;27376;-75
2023/05/01 10:08:48;;;;;;;4.40;2.70;;;24.30;42.30;;;;;;918749;151;27498;-75
2023/05/01 10:11:14;;;;;;;3.02;2.70;;;24.30;43.00;;;;;;926393;152;27431;-75
2023/05/01 10:13:41;;;;;;;4.83;3.10;;;24.20;42.30;;;;;;946712;148;27742;-75
2023/05/01 10:16:09;;;;;;;3.80;2.70;;;24.20;42.40;;;;;;937357;150;27799;-75
2023/05/01 10:18:34;;;;;;;3.25;2.75;;;24.10;42.40;;;;;;927992;151;27390;-75
2023/05/01 10:21:01;;;;;;;2.75;2.55;;;24.10;42.60;;;;;;923753;151;27381;-75
2023/05/01 10:23:28;;;;;;;3.05;2.72;;;24.00;42.50;;;;;;929417;151;27352;-75
2023/05/01 10:25:54;;;;;;;2.92;2.55;;;24.00;42.60;;;;;;946104;149;27313;-75
2023/05/01 10:28:21;;;;;;;2.92;2.65;;;23.90;42.60;;;;;;946723;148;27444;-75
2023/05/01 10:30:47;;;;;;;2.80;2.60;;;23.90;42.60;;;;;;945807;149;27442;-75
2023/05/01 10:33:14;;;;;;;4.28;3.27;;;23.90;42.60;;;;;;944629;148;27430;-75
2023/05/01 10:35:40;;;;;;;3.40;3.10;;;23.80;42.80;;;;;;946122;148;27293;-75
2023/05/01 10:38:07;;;;;;;4.22;2.85;;;23.80;42.90;;;;;;945430;148;27395;-75
2023/05/01 10:40:39;;;;;;;4.30;2.90;;;23.80;42.80;;;;;;944798;148;27462;-75
2023/05/01 10:43:17;;;;;;;3.77;2.95;;;23.70;42.70;;;;;;946159;148;27347;-74
2023/05/01 10:45:44;;;;;;;5.22;2.50;;;23.70;42.70;;;;;;946177;148;27333;-75
2023/05/01 10:48:10;;;;;;;3.00;2.80;;;23.60;42.70;;;;;;946394;148;27345;-75
2023/05/01 10:51:16;;;;;;;2.60;2.40;;;23.60;42.80;;;;;;923228;151;27390;-75
2023/05/01 10:53:41;;;;;;;3.22;2.47;;;23.50;42.90;;;;;;925787;151;27850;-75
2023/05/01 10:56:32;;;;;;;2.83;2.62;;;23.50;43.20;;;;;;931110;151;27360;-75
2023/05/01 10:58:58;;;;;;;2.98;2.67;;;23.40;43.10;;;;;;928398;151;27325;-75
2023/05/01 11:01:47;;;;;;;3.87;3.10;;;23.40;43.20;;;;;;946861;148;27426;-75
2023/05/01 11:04:21;;;;;;;3.85;2.90;;;23.40;43.30;;;;;;929613;151;27393;-75
2023/05/01 11:07:06;;;;;;;2.90;2.60;;;23.40;43.50;;;;;;930533;151;27432;-74
2023/05/01 11:09:41;;;;;;;3.12;2.80;;;23.40;43.60;;;;;;928149;151;27366;-75
2023/05/01 11:12:08;;;;;;;2.75;2.55;;;23.40;43.60;;;;;;929730;150;27518;-75
2023/05/01 11:14:53;;;;;;;3.90;2.95;;;23.40;43.50;;;;;;949046;148;27359;-75
2023/05/01 11:17:41;;;;;;;3.17;2.60;;;23.40;43.50;;;;;;951446;147;27435;-74
2023/05/01 11:20:10;;;;;;;3.62;2.72;;;23.50;43.50;;;;;;933440;151;27395;-75
2023/05/01 11:22:37;;;;;;;4.22;2.83;;;23.60;43.60;;;;;;937794;150;27326;-74
2023/05/01 11:25:04;;;;;;;5.42;3.22;;;23.60;43.50;;;;;;951627;148;27796;-74
2023/05/01 11:27:30;;;;;;;3.62;3.00;;;23.70;43.50;;;;;;935939;150;27401;-76
2023/05/01 11:29:59;;;;;;;3.33;3.02;;;23.80;43.40;;;;;;951917;148;27364;-75
2023/05/01 11:32:26;;;;;;;4.58;3.00;;;24.00;43.20;;;;;;951440;147;27324;-75
2023/05/01 11:34:52;;;;;;;2.87;2.67;;;24.10;42.80;;;;;;934652;150;27464;-75
2023/05/01 11:37:19;;;;;;;3.00;2.80;;;24.20;42.60;;;;;;950990;148;27423;-75
2023/05/01 11:39:49;;;;;;;2.90;2.70;;;24.30;42.60;;;;;;931050;150;27912;-75
2023/05/01 11:42:15;;;;;;;3.27;3.02;;;24.30;42.40;;;;;;935053;150;27454;-75
2023/05/01 11:44:42;;;;;;;2.90;2.47;;;24.40;42.40;;;;;;935777;150;27758;-75
2023/05/01 11:47:08;;;;;;;3.12;2.83;;;24.50;42.40;;;;;;951732;148;27437;-75
2023/05/01 11:49:35;;;;;;;3.08;2.77;;;24.60;42.40;;;;;;939377;150;27370;-75
2023/05/01 11:52:01;;;;;;;2.90;2.70;;;24.70;42.30;;;;;;935411;150;27371;-75
2023/05/01 11:54:28;;;;;;;3.15;2.80;;;24.80;42.00;;;;;;951090;148;27340;-75
2023/05/01 11:57:00;;;;;;;3.27;2.90;;;24.90;41.80;;;;;;951766;148;27271;-76
2023/05/01 11:59:24;;;;;;;3.08;2.77;;;24.90;41.60;;;;;;935057;150;27514;-75
2023/05/01 12:01:52;;;;;;;3.47;2.58;;;25.00;41.40;;;;;;951603;148;27332;-75
2023/05/01 12:04:23;;;;;;;2.72;2.50;;;25.10;41.20;;;;;;934465;150;27413;-75
2023/05/01 12:06:50;;;;;;;3.10;2.90;;;25.10;41.00;;;;;;950298;148;27443;-75
2023/05/01 12:09:19;;;;;;;5.25;2.80;;;25.20;41.00;;;;;;949190;148;27487;-74
2023/05/01 12:11:46;;;;;;;3.67;2.65;;;25.10;40.70;;;;;;947085;151;27324;-75
2023/05/01 12:14:12;;;;;;;3.08;2.72;;;25.10;40.60;;;;;;946577;148;27321;-75
2023/05/01 12:16:39;;;;;;;3.10;2.60;;;25.00;40.80;;;;;;946471;151;27286;-75
2023/05/01 12:19:05;;;;;;;3.10;2.47;;;25.00;40.90;;;;;;945835;150;27339;-75
2023/05/01 12:21:32;;;;;;;2.85;2.65;;;25.10;40.90;;;;;;946279;151;27369;-75
2023/05/01 12:24:11;;;;;;;3.70;2.90;;;25.10;40.70;;;;;;946096;150;27315;-75
2023/05/01 12:26:37;;;;;;;3.17;2.98;;;25.10;40.60;;;;;;946510;148;27301;-75
2023/05/01 12:29:04;;;;;;;3.25;2.95;;;25.20;40.50;;;;;;934290;149;27382;-75
2023/05/01 12:31:31;;;;;;;2.65;2.45;;;25.20;40.30;;;;;;927097;152;27567;-75
2023/05/01 12:34:00;;;;;;;2.62;2.42;;;25.10;40.30;;;;;;930348;151;27847;-75
2023/05/01 12:36:27;;;;;;;3.92;2.75;;;25.10;40.30;;;;;;950971;148;27356;-75
2023/05/01 12:38:57;;;;;;;3.37;2.60;;;25.10;40.30;;;;;;926613;151;27345;-75
2023/05/01 12:41:33;;;;;;;3.00;2.62;;;25.10;40.30;;;;;;929802;151;27418;-75
2023/05/01 12:43:59;;;;;;;2.92;2.40;;;25.10;40.20;;;;;;926170;151;27395;-75
2023/05/01 12:46:25;;;;;;;2.10;2.00;;;25.20;40.40;;;;;;930437;151;27531;-75
2023/05/01 12:48:52;;;;;;;2.58;2.30;;;25.20;40.40;;;;;;946794;149;27339;-75
2023/05/01 12:51:19;;;;;;;4.22;2.72;;;25.20;40.20;;;;;;946876;149;28166;-75